Time;durP1;ratioP1;P1;durP2;ratioP2;P2;SDS_P1;SDS_P2;PMS_P1;PMS_P2;Temp;Humidity;BMP_temperature;BMP_pressure;BME280_temperature;BME280_humidity;BME280_pressure;Samples;Min_cycle;Max_cycle;Signal;HPM_P1;HPM_P2
2021/01/10 00:01:50;;;;;;;28.67;9.57;;;2.40;99.90;;;;;;8334546;28;20049;-76
2021/01/10 00:05:52;;;;;;;15.70;8.80;;;1.70;99.90;;;;;;8308068;28;20474;-76
2021/01/10 00:09:53;;;;;;;15.75;9.07;;;1.90;99.90;;;;;;8298062;28;20276;-75
2021/01/10 00:13:55;;;;;;;14.67;9.00;;;1.60;99.90;;;;;;8307874;28;20061;-75
2021/01/10 00:17:57;;;;;;;14.20;8.33;;;1.10;99.90;;;;;;8293467;28;20467;-75
2021/01/10 00:21:59;;;;;;;13.88;8.25;;;1.60;99.90;;;;;;8339721;28;21051;-77
2021/01/10 00:26:00;;;;;;;13.97;8.20;;;1.60;99.90;;;;;;8294615;28;20045;-77
2021/01/10 00:30:08;;;;;;;14.10;8.40;;;1.50;99.90;;;;;;8310225;28;20894;-74
2021/01/10 00:34:14;;;;;;;12.45;8.02;;;1.50;99.90;;;;;;8332045;28;20122;-76
2021/01/10 00:38:16;;;;;;;14.20;8.47;;;1.50;99.90;;;;;;8343176;28;20049;-73
2021/01/10 00:42:18;;;;;;;16.53;8.67;;;1.50;99.90;;;;;;8302669;27;20462;-77
2021/01/10 00:46:19;;;;;;;;;;;1.50;99.90;;;;;;8297764;28;20469;-74
2021/01/10 00:50:21;;;;;;;13.50;8.17;;;1.50;99.90;;;;;;8301426;28;19925;-76
2021/01/10 00:54:22;;;;;;;15.50;9.37;;;1.50;99.90;;;;;;8296283;28;20053;-76
2021/01/10 00:58:24;;;;;;;15.50;9.27;;;2.10;99.90;;;;;;8308235;28;20471;-77
2021/01/10 01:02:26;;;;;;;15.60;8.77;;;1.40;99.90;;;;;;8322908;28;20573;-77
2021/01/10 01:06:28;;;;;;;16.90;9.30;;;1.50;99.90;;;;;;8332346;28;20053;-74
2021/01/10 01:10:30;;;;;;;16.08;9.55;;;1.40;99.90;;;;;;8335482;28;20060;-74
2021/01/10 01:14:32;;;;;;;17.07;9.80;;;2.20;99.90;;;;;;8354607;28;20053;-75
2021/01/10 01:18:34;;;;;;;21.63;9.82;;;1.40;99.80;;;;;;8328934;28;20048;-77
2021/01/10 01:22:36;;;;;;;19.73;11.00;;;1.40;99.80;;;;;;8311831;28;20045;-77
2021/01/10 01:26:38;;;;;;;24.50;11.18;;;1.40;99.80;;;;;;8325059;28;20570;-77
2021/01/10 01:30:40;;;;;;;20.35;11.57;;;2.10;99.90;;;;;;8295225;28;20046;-74
2021/01/10 01:34:41;;;;;;;23.48;12.07;;;1.40;99.70;;;;;;8308756;28;20415;-74
2021/01/10 01:38:44;;;;;;;25.97;12.57;;;1.40;99.70;;;;;;8295352;28;20052;-77
2021/01/10 01:42:46;;;;;;;21.17;11.55;;;1.30;99.40;;;;;;8303639;28;20455;-77
2021/01/10 01:46:48;;;;;;;23.23;12.68;;;1.30;99.70;;;;;;8317664;28;20045;-76
2021/01/10 01:50:50;;;;;;;25.27;12.73;;;1.50;99.70;;;;;;8307157;28;20059;-77
2021/01/10 01:54:53;;;;;;;22.58;12.15;;;1.30;99.70;;;;;;8275452;28;20049;-77
2021/01/10 01:58:56;;;;;;;24.15;12.35;;;1.30;99.70;;;;;;8294347;28;20049;-74
2021/01/10 02:02:58;;;;;;;24.42;12.27;;;1.30;99.70;;;;;;8296293;28;20072;-77
2021/01/10 02:07:08;;;;;;;27.83;11.32;;;1.20;99.70;;;;;;8317365;28;20083;-77
2021/01/10 02:11:12;;;;;;;21.80;11.95;;;1.30;99.70;;;;;;8352522;28;20055;-76
2021/01/10 02:15:16;;;;;;;23.98;12.38;;;1.30;99.70;;;;;;8318065;28;20053;-76
2021/01/10 02:19:37;;;;;;;23.80;12.70;;;1.20;99.70;;;;;;8286536;28;20049;-77
2021/01/10 02:23:40;;;;;;;20.95;11.70;;;1.20;99.70;;;;;;8293575;28;20546;-77
2021/01/10 02:27:42;;;;;;;25.60;12.75;;;1.40;99.70;;;;;;8326319;28;20137;-76
2021/01/10 02:31:47;;;;;;;21.52;12.02;;;1.10;99.40;;;;;;8295330;28;20052;-77
2021/01/10 02:35:50;;;;;;;22.75;11.90;;;1.10;99.60;;;;;;8292528;28;20049;-77
2021/01/10 02:40:10;;;;;;;23.70;13.07;;;1.10;99.40;;;;;;8307669;28;20095;-77
2021/01/10 02:44:30;;;;;;;21.55;12.23;;;1.10;99.40;;;;;;8320792;28;20046;-76
2021/01/10 02:48:32;;;;;;;23.23;12.82;;;1.10;99.70;;;;;;8309935;28;20098;-76
2021/01/10 02:52:51;;;;;;;23.35;12.30;;;2.30;99.90;;;;;;8313266;28;20061;-76
2021/01/10 02:57:18;;;;;;;24.83;12.82;;;1.90;99.90;;;;;;8289932;28;20046;-76
2021/01/10 03:01:20;;;;;;;25.30;12.82;;;1.30;99.70;;;;;;8322395;28;20049;-76
2021/01/10 03:05:26;;;;;;;24.95;13.30;;;1.00;99.40;;;;;;8317372;28;20821;-75
2021/01/10 03:09:28;;;;;;;27.15;13.88;;;1.00;99.70;;;;;;8326760;28;20052;-75
2021/01/10 03:13:31;;;;;;;28.45;14.50;;;1.00;99.70;;;;;;8304639;28;20535;-75
2021/01/10 03:17:40;;;;;;;28.23;14.35;;;1.00;99.70;;;;;;8316082;28;20273;-76
2021/01/10 03:21:42;;;;;;;27.58;14.52;;;1.00;99.70;;;;;;8326154;28;20128;-75
2021/01/10 03:25:44;;;;;;;26.88;13.98;;;1.00;99.70;;;;;;8311714;28;20057;-75
2021/01/10 03:29:45;;;;;;;;;;;1.40;99.80;;;;;;8313807;28;20046;-74
2021/01/10 03:33:47;;;;;;;28.92;14.82;;;1.00;99.60;;;;;;8307590;28;19946;-75
2021/01/10 03:37:48;;;;;;;27.97;14.60;;;0.90;99.70;;;;;;8305389;28;20038;-75
2021/01/10 03:41:50;;;;;;;30.30;16.13;;;0.90;99.70;;;;;;8320039;28;20462;-76
2021/01/10 03:45:52;;;;;;;32.87;16.03;;;1.00;99.70;;;;;;8328668;28;20044;-76
2021/01/10 03:49:53;;;;;;;32.10;16.27;;;1.10;99.70;;;;;;8335380;28;20484;-76
2021/01/10 03:53:55;;;;;;;29.23;16.35;;;1.00;99.70;;;;;;8298955;28;20108;-77
2021/01/10 03:57:56;;;;;;;28.65;15.68;;;0.90;99.70;;;;;;8299889;28;20111;-77
2021/01/10 04:01:58;;;;;;;30.52;16.45;;;0.90;99.60;;;;;;8299785;28;20734;-77
2021/01/10 04:05:59;;;;;;;32.65;16.15;;;0.90;99.60;;;;;;8325682;28;20482;-78
2021/01/10 04:10:00;;;;;;;31.17;16.83;;;0.90;99.60;;;;;;8332755;28;20463;-77
2021/01/10 04:14:02;;;;;;;34.05;17.27;;;0.90;99.50;;;;;;8329321;28;20466;-78
2021/01/10 04:18:03;;;;;;;31.08;17.13;;;0.90;99.60;;;;;;8324572;27;20513;-78
2021/01/10 04:22:05;;;;;;;33.97;17.88;;;0.80;99.60;;;;;;8326609;28;20041;-77
2021/01/10 04:26:06;;;;;;;32.40;18.10;;;0.80;99.60;;;;;;8279483;28;20473;-77
2021/01/10 04:30:08;;;;;;;32.50;17.35;;;0.80;99.60;;;;;;8327476;28;20056;-76
2021/01/10 04:34:10;;;;;;;33.03;17.15;;;0.70;99.60;;;;;;8313907;28;20048;-76
2021/01/10 04:38:11;;;;;;;32.53;17.27;;;0.70;99.30;;;;;;8313500;28;20057;-75
2021/01/10 04:42:14;;;;;;;34.17;16.75;;;0.50;99.60;;;;;;8305887;28;20408;-77
2021/01/10 04:46:16;;;;;;;34.30;17.10;;;0.80;99.60;;;;;;8295172;28;20057;-77
2021/01/10 04:50:18;;;;;;;;;;;0.70;99.50;;;;;;8303018;28;20064;-76
2021/01/10 04:54:21;;;;;;;31.20;16.38;;;0.50;99.40;;;;;;8324901;28;20404;-77
2021/01/10 04:58:27;;;;;;;29.85;16.50;;;1.30;99.60;;;;;;8323502;28;20136;-77
2021/01/10 05:02:32;;;;;;;30.00;16.48;;;0.60;99.50;;;;;;8327478;28;20099;-77
2021/01/10 05:06:35;;;;;;;32.33;16.60;;;0.60;99.50;;;;;;8308853;28;20136;-77
2021/01/10 05:10:39;;;;;;;33.80;17.42;;;0.60;99.50;;;;;;8312018;28;20060;-77
2021/01/10 05:14:41;;;;;;;34.55;15.85;;;0.60;99.50;;;;;;8299436;28;20053;-76
2021/01/10 05:18:53;;;;;;;35.67;18.13;;;0.60;99.40;;;;;;8342674;28;20092;-77
2021/01/10 05:22:55;;;;;;;;;;;0.50;99.40;;;;;;8333332;28;20069;-76
2021/01/10 05:26:57;;;;;;;32.75;16.45;;;0.50;99.40;;;;;;8330198;28;19971;-77
2021/01/10 05:31:07;;;;;;;31.25;14.90;;;0.40;99.40;;;;;;8318510;28;20053;-77
2021/01/10 05:35:10;;;;;;;36.92;16.08;;;0.40;99.50;;;;;;8300305;28;20573;-76
2021/01/10 05:39:15;;;;;;;;;;;0.40;99.50;;;;;;8303938;28;20412;-76
2021/01/10 05:43:16;;;;;;;34.45;16.50;;;0.40;99.50;;;;;;8296447;28;20460;-76
2021/01/10 05:47:19;;;;;;;33.33;16.17;;;0.40;99.50;;;;;;8282816;28;20056;-77
2021/01/10 05:51:24;;;;;;;31.83;15.95;;;0.40;99.50;;;;;;8298101;28;20099;-77
2021/01/10 05:55:26;;;;;;;30.63;15.38;;;0.40;99.20;;;;;;8321158;28;20053;-77
2021/01/10 05:59:30;;;;;;;27.73;13.93;;;0.40;99.40;;;;;;8329763;28;20052;-77
2021/01/10 06:03:31;;;;;;;30.60;14.73;;;0.40;99.40;;;;;;8313836;28;20133;-76
2021/01/10 06:07:33;;;;;;;30.85;15.00;;;0.40;99.40;;;;;;8293788;28;20060;-75
2021/01/10 06:11:36;;;;;;;;;;;0.40;99.30;;;;;;8297122;28;20136;-77
2021/01/10 06:15:38;;;;;;;;;;;0.50;99.40;;;;;;8316997;28;19924;-76
2021/01/10 06:19:41;;;;;;;29.27;13.53;;;0.30;99.00;;;;;;8343258;28;19931;-78
2021/01/10 06:23:46;;;;;;;27.27;14.18;;;0.40;99.30;;;;;;8288153;28;20051;-75
2021/01/10 06:28:12;;;;;;;25.88;13.50;;;0.30;99.30;;;;;;8326726;27;20061;-77
2021/01/10 06:32:15;;;;;;;26.30;12.43;;;0.40;99.30;;;;;;8340022;28;20132;-72
2021/01/10 06:36:20;;;;;;;24.80;12.52;;;0.40;99.40;;;;;;8294721;28;20132;-73
2021/01/10 06:40:24;;;;;;;27.88;13.15;;;0.30;99.50;;;;;;8301122;28;20133;-71
2021/01/10 06:44:25;;;;;;;25.35;11.45;;;0.40;99.00;;;;;;8310944;28;21118;-72
2021/01/10 06:48:27;;;;;;;26.08;12.60;;;0.40;99.20;;;;;;8320169;28;20566;-73
2021/01/10 06:52:30;;;;;;;21.83;12.00;;;0.40;99.30;;;;;;8300596;28;20094;-72
2021/01/10 06:56:34;;;;;;;24.38;11.82;;;0.40;99.00;;;;;;8292373;28;20084;-72
2021/01/10 07:00:57;;;;;;;21.50;11.68;;;0.40;99.30;;;;;;8321201;28;20644;-73
2021/01/10 07:04:59;;;;;;;22.20;10.98;;;0.40;99.30;;;;;;8320969;28;20489;-74
2021/01/10 07:09:00;;;;;;;22.80;12.40;;;0.40;99.20;;;;;;8323151;28;20052;-72
2021/01/10 07:13:31;;;;;;;27.17;11.73;;;0.50;99.20;;;;;;8336808;28;20045;-72
2021/01/10 07:17:33;;;;;;;28.13;10.70;;;0.40;99.30;;;;;;8314436;28;20757;-73
2021/01/10 07:21:39;;;;;;;31.27;11.50;;;0.40;99.30;;;;;;8328376;28;20049;-73
2021/01/10 07:25:41;;;;;;;56.22;12.05;;;0.40;99.50;;;;;;8326664;28;20148;-73
2021/01/10 07:29:43;;;;;;;37.65;11.73;;;0.50;99.60;;;;;;8318623;28;20148;-73
2021/01/10 07:33:45;;;;;;;75.50;14.35;;;0.50;99.50;;;;;;8333064;28;20052;-73
2021/01/10 07:37:47;;;;;;;52.92;14.13;;;0.50;99.50;;;;;;8327274;28;20099;-73
2021/01/10 07:41:49;;;;;;;68.50;15.20;;;0.50;99.60;;;;;;8322552;28;20049;-73
2021/01/10 07:45:50;;;;;;;;;;;0.60;99.70;;;;;;8327123;28;20052;-72
2021/01/10 07:49:56;;;;;;;39.35;13.68;;;0.60;99.90;;;;;;8345526;28;19925;-73
2021/01/10 07:53:58;;;;;;;46.95;16.00;;;0.60;99.60;;;;;;8300794;28;20063;-73
2021/01/10 07:58:02;;;;;;;61.58;17.65;;;0.60;99.70;;;;;;8307311;28;20049;-73
2021/01/10 08:02:04;;;;;;;64.13;18.90;;;0.70;99.70;;;;;;8316533;27;20053;-71
2021/01/10 08:06:06;;;;;;;61.42;19.00;;;0.70;99.90;;;;;;8285792;28;20053;-70
2021/01/10 08:10:09;;;;;;;;;;;0.80;99.90;;;;;;8329811;28;20055;-71
2021/01/10 08:14:11;;;;;;;72.65;19.63;;;0.80;99.90;;;;;;8290667;28;20449;-71
2021/01/10 08:18:13;;;;;;;94.35;20.90;;;0.80;99.90;;;;;;8285758;28;20068;-70
2021/01/10 08:22:15;;;;;;;81.75;22.17;;;0.90;99.90;;;;;;8301471;28;20053;-71
2021/01/10 08:26:18;;;;;;;71.45;21.25;;;1.00;99.80;;;;;;8303208;28;20052;-72
2021/01/10 08:30:20;;;;;;;87.10;20.98;;;0.90;99.90;;;;;;8282713;28;20049;-71
2021/01/10 08:34:22;;;;;;;;;;;1.00;99.90;;;;;;8288719;28;20053;-71
2021/01/10 08:38:23;;;;;;;64.85;20.67;;;1.00;99.90;;;;;;8289857;28;20002;-70
2021/01/10 08:42:25;;;;;;;68.30;18.48;;;1.10;99.90;;;;;;8296280;28;20490;-71
2021/01/10 08:46:28;;;;;;;65.93;20.10;;;1.10;99.90;;;;;;8280749;28;20061;-71
2021/01/10 08:50:40;;;;;;;66.55;19.33;;;1.10;99.90;;;;;;8315960;28;20114;-71
2021/01/10 08:54:49;;;;;;;77.75;18.15;;;1.10;99.90;;;;;;8325523;28;20495;-71
2021/01/10 08:58:55;;;;;;;70.30;18.80;;;1.20;99.90;;;;;;8326463;28;20354;-70
2021/01/10 09:03:17;;;;;;;70.13;18.98;;;1.10;99.90;;;;;;8337472;28;20110;-68
2021/01/10 09:07:24;;;;;;;69.47;19.08;;;1.40;99.90;;;;;;8321774;28;20127;-72
2021/01/10 09:11:29;;;;;;;69.28;18.90;;;1.20;99.90;;;;;;8291869;28;20478;-72
2021/01/10 09:15:38;;;;;;;77.20;20.55;;;1.30;99.90;;;;;;8289361;28;20045;-72
2021/01/10 09:19:41;;;;;;;76.07;21.60;;;1.30;99.90;;;;;;8296738;28;20115;-70
2021/01/10 09:23:50;;;;;;;74.47;20.73;;;1.30;99.90;;;;;;8307607;28;20064;-71
2021/01/10 09:28:13;;;;;;;77.28;20.27;;;1.40;99.90;;;;;;8327272;28;20522;-71
2021/01/10 09:32:22;;;;;;;77.32;19.95;;;1.40;99.90;;;;;;8342386;27;20037;-71
2021/01/10 09:36:24;;;;;;;62.55;17.95;;;1.50;99.90;;;;;;8293220;28;20092;-71
2021/01/10 09:40:26;;;;;;;;;;;1.40;99.90;;;;;;8308988;28;20564;-69
2021/01/10 09:44:27;;;;;;;81.03;23.02;;;1.50;99.90;;;;;;8329068;28;19928;-69
2021/01/10 09:48:30;;;;;;;92.82;23.83;;;1.50;99.90;;;;;;8318550;28;20057;-69
2021/01/10 09:52:45;;;;;;;81.60;23.95;;;1.50;99.90;;;;;;8336050;27;20247;-68
2021/01/10 09:57:02;;;;;;;85.82;22.02;;;1.50;99.90;;;;;;8325444;27;20057;-68
2021/01/10 10:01:08;;;;;;;72.88;22.42;;;1.60;99.90;;;;;;8353463;28;20114;-69
2021/01/10 10:05:11;;;;;;;71.22;21.92;;;1.60;99.90;;;;;;8331781;28;20603;-69
2021/01/10 10:09:13;;;;;;;74.05;22.83;;;1.60;99.90;;;;;;8295069;28;20135;-68
2021/01/10 10:13:27;;;;;;;81.22;21.55;;;1.60;99.90;;;;;;8324302;28;20080;-69
2021/01/10 10:17:34;;;;;;;73.45;21.15;;;1.60;99.90;;;;;;8339731;28;20064;-69
2021/01/10 10:21:47;;;;;;;67.60;21.25;;;1.70;99.90;;;;;;8325059;28;20060;-69
2021/01/10 10:25:50;;;;;;;70.53;20.63;;;1.70;99.90;;;;;;8331438;28;20099;-69
2021/01/10 10:29:51;;;;;;;69.40;21.10;;;1.70;99.90;;;;;;8325685;28;20044;-69
2021/01/10 10:33:56;;;;;;;65.65;18.27;;;1.80;99.90;;;;;;8323589;28;20423;-69
2021/01/10 10:37:58;;;;;;;60.80;20.33;;;1.70;99.90;;;;;;8325741;28;20058;-68
2021/01/10 10:41:59;;;;;;;71.70;20.35;;;1.90;99.90;;;;;;8333611;28;20053;-68
2021/01/10 10:46:25;;;;;;;55.80;17.42;;;1.90;99.90;;;;;;8333692;28;20076;-67
2021/01/10 10:50:26;;;;;;;74.53;21.00;;;2.00;99.90;;;;;;8318712;28;20056;-69
2021/01/10 10:54:29;;;;;;;68.00;20.08;;;2.00;99.90;;;;;;8322089;28;20503;-69
2021/01/10 10:58:31;;;;;;;65.68;21.50;;;2.10;99.90;;;;;;8328095;28;20135;-69
2021/01/10 11:02:32;;;;;;;81.20;24.77;;;2.10;99.90;;;;;;8306574;28;20072;-69
2021/01/10 11:06:35;;;;;;;51.60;19.23;;;2.20;99.90;;;;;;8277341;28;20553;-69
2021/01/10 11:10:37;;;;;;;52.85;17.75;;;2.30;99.90;;;;;;8290892;28;20052;-69
2021/01/10 11:14:38;;;;;;;53.73;19.73;;;2.40;99.90;;;;;;8285685;28;20041;-69
2021/01/10 11:18:41;;;;;;;48.47;18.35;;;2.40;99.90;;;;;;8288284;28;20096;-69
2021/01/10 11:22:42;;;;;;;48.15;18.25;;;2.50;99.90;;;;;;8322973;28;20140;-69
2021/01/10 11:26:46;;;;;;;43.73;17.50;;;2.40;99.90;;;;;;8319908;28;20063;-69
2021/01/10 11:30:47;;;;;;;49.38;17.77;;;2.50;99.90;;;;;;8323578;28;20050;-69
2021/01/10 11:34:50;;;;;;;45.60;15.90;;;2.60;99.90;;;;;;8285315;28;20041;-70
2021/01/10 11:38:52;;;;;;;51.35;17.95;;;2.60;99.90;;;;;;8294550;28;20057;-69
2021/01/10 11:42:54;;;;;;;42.17;17.27;;;2.70;99.90;;;;;;8292067;28;20055;-69
2021/01/10 11:46:55;;;;;;;42.27;17.33;;;2.70;99.90;;;;;;8293455;28;20102;-69
2021/01/10 11:50:57;;;;;;;39.50;14.77;;;2.90;99.90;;;;;;8287815;28;20050;-69
2021/01/10 11:54:59;;;;;;;43.58;17.60;;;2.90;99.90;;;;;;8271587;28;20057;-70
2021/01/10 11:59:00;;;;;;;35.42;14.48;;;3.10;99.90;;;;;;8299722;28;20057;-70
2021/01/10 12:03:02;;;;;;;32.27;14.33;;;2.90;99.90;;;;;;8316456;28;20044;-68
2021/01/10 12:07:05;;;;;;;38.45;15.40;;;3.00;99.90;;;;;;8324746;28;20520;-70
2021/01/10 12:11:13;;;;;;;36.53;14.03;;;3.00;99.90;;;;;;8324360;28;20111;-69
2021/01/10 12:15:15;;;;;;;34.42;14.75;;;2.90;99.90;;;;;;8331550;28;20045;-69
2021/01/10 12:19:18;;;;;;;52.13;21.35;;;3.00;99.90;;;;;;8330258;28;20048;-70
2021/01/10 12:23:20;;;;;;;30.50;13.98;;;3.10;99.90;;;;;;8327309;28;20041;-69
2021/01/10 12:27:22;;;;;;;28.53;13.03;;;3.00;99.90;;;;;;8294431;28;20049;-69
2021/01/10 12:31:23;;;;;;;29.83;13.97;;;3.10;99.90;;;;;;8308158;28;20273;-67
2021/01/10 12:35:25;;;;;;;29.33;13.30;;;3.10;99.90;;;;;;8327526;28;20136;-69
2021/01/10 12:39:27;;;;;;;31.42;13.52;;;3.10;99.90;;;;;;8316719;27;20049;-69
2021/01/10 12:43:29;;;;;;;32.22;13.18;;;3.10;99.90;;;;;;8302249;28;20411;-68
2021/01/10 12:47:30;;;;;;;33.13;14.05;;;3.20;99.90;;;;;;8289623;28;20396;-68
2021/01/10 12:51:39;;;;;;;27.80;12.50;;;3.20;99.90;;;;;;8301745;28;20042;-69
2021/01/10 12:55:40;;;;;;;27.77;13.50;;;3.20;99.90;;;;;;8311850;28;20523;-69
2021/01/10 12:59:42;;;;;;;31.40;12.73;;;3.20;99.90;;;;;;8271633;28;20713;-69
2021/01/10 13:03:43;;;;;;;29.63;13.27;;;3.10;99.90;;;;;;8288013;28;20459;-69
2021/01/10 13:07:47;;;;;;;27.63;12.87;;;3.20;99.90;;;;;;8295156;28;20045;-69
2021/01/10 13:11:49;;;;;;;30.25;14.05;;;3.20;99.90;;;;;;8319764;28;20454;-69
2021/01/10 13:15:50;;;;;;;40.83;13.67;;;3.20;99.90;;;;;;8323818;28;20568;-69
2021/01/10 13:19:52;;;;;;;35.40;14.40;;;3.30;99.90;;;;;;8319652;28;20079;-69
2021/01/10 13:23:53;;;;;;;30.90;12.25;;;3.20;99.90;;;;;;8323215;28;20875;-69
2021/01/10 13:27:55;;;;;;;26.60;12.60;;;3.30;99.90;;;;;;8331356;28;20660;-69
2021/01/10 13:31:56;;;;;;;29.20;12.57;;;3.30;99.90;;;;;;8315432;28;20478;-69
2021/01/10 13:35:58;;;;;;;35.13;12.35;;;3.30;99.90;;;;;;8319530;28;20049;-69
2021/01/10 13:39:59;;;;;;;30.87;13.40;;;3.20;99.90;;;;;;8288412;28;20115;-68
2021/01/10 13:44:01;;;;;;;31.13;14.57;;;3.30;99.90;;;;;;8306148;28;20057;-69
2021/01/10 13:48:02;;;;;;;37.63;14.32;;;3.30;99.90;;;;;;8287068;28;20079;-69
2021/01/10 13:52:16;;;;;;;35.97;15.23;;;3.30;99.90;;;;;;8294938;28;20111;-69
2021/01/10 13:56:21;;;;;;;32.00;14.57;;;3.30;99.90;;;;;;8288755;28;20404;-68
2021/01/10 14:00:23;;;;;;;27.98;13.60;;;3.30;99.90;;;;;;8265831;28;20180;-68
2021/01/10 14:04:26;;;;;;;;;;;3.20;99.90;;;;;;8292850;28;20045;-69
2021/01/10 14:08:28;;;;;;;44.78;14.23;;;3.20;99.90;;;;;;8315249;28;20481;-69
2021/01/10 14:12:29;;;;;;;34.07;14.37;;;3.30;99.90;;;;;;8319273;28;20110;-69
2021/01/10 14:17:22;;;;;;;30.03;13.63;;;3.20;99.90;;;;;;8302944;28;20131;-69
2021/01/10 14:22:39;;;;;;;32.42;15.45;;;3.30;99.90;;;;;;8279695;28;20514;-69
2021/01/10 14:28:22;;;;;;;31.58;14.55;;;3.20;99.90;;;;;;8383589;28;20082;-69
2021/01/10 14:34:02;;;;;;;30.30;14.25;;;3.20;99.90;;;;;;8382550;28;20063;-69
2021/01/10 14:39:45;;;;;;;28.55;14.68;;;3.20;99.90;;;;;;8382593;28;20488;-69
2021/01/10 14:44:35;;;;;;;22.58;12.73;;;3.30;99.90;;;;;;8355284;28;20121;-69
2021/01/10 14:48:36;;;;;;;28.15;13.43;;;3.20;99.90;;;;;;8375383;28;20641;-71
2021/01/10 14:52:38;;;;;;;34.40;13.60;;;3.20;99.90;;;;;;8369674;28;20057;-69
2021/01/10 14:56:39;;;;;;;33.67;12.60;;;3.20;99.90;;;;;;8382184;28;20458;-69
2021/01/10 15:00:41;;;;;;;33.28;12.40;;;3.30;99.90;;;;;;8340155;28;20036;-69
2021/01/10 15:04:42;;;;;;;39.42;15.95;;;4.00;99.90;;;;;;8356683;28;20106;-69
2021/01/10 15:09:34;;;;;;;38.93;16.53;;;3.30;99.90;;;;;;8388761;28;20048;-69
2021/01/10 15:15:16;;;;;;;19.45;9.70;;;3.30;99.90;;;;;;8387798;28;20069;-68
2021/01/10 15:20:57;;;;;;;26.20;13.88;;;3.40;99.90;;;;;;8386059;28;20067;-69
2021/01/10 15:27:03;;;;;;;31.52;14.07;;;3.40;99.90;;;;;;8393134;28;20058;-69
2021/01/10 15:32:45;;;;;;;19.65;10.05;;;3.40;99.90;;;;;;8390040;28;20036;-69
2021/01/10 15:38:26;;;;;;;19.17;11.30;;;3.50;99.90;;;;;;8394264;27;20232;-70
2021/01/10 15:44:08;;;;;;;18.33;9.20;;;2.70;99.90;;;;;;8396610;28;20054;-69
2021/01/10 15:49:49;;;;;;;21.00;9.77;;;3.50;99.90;;;;;;8368784;28;20082;-69
2021/01/10 15:55:29;;;;;;;23.05;9.30;;;3.60;99.90;;;;;;8370030;28;21670;-69
2021/01/10 16:01:10;;;;;;;15.85;8.57;;;3.60;99.90;;;;;;8372180;28;20064;-69
2021/01/10 16:06:52;;;;;;;14.50;7.68;;;3.70;99.90;;;;;;8375775;28;20035;-68
2021/01/10 16:12:35;;;;;;;17.83;9.07;;;3.70;99.90;;;;;;8369810;28;20075;-69
2021/01/10 16:17:27;;;;;;;27.25;10.82;;;3.80;99.90;;;;;;8366288;28;20074;-69
2021/01/10 16:21:29;;;;;;;17.90;9.55;;;3.80;99.90;;;;;;8376150;28;20500;-69
2021/01/10 16:25:31;;;;;;;21.33;10.77;;;3.80;99.90;;;;;;8369104;28;20098;-69
2021/01/10 16:29:32;;;;;;;21.37;9.97;;;3.80;99.90;;;;;;8380113;28;21324;-69
2021/01/10 16:33:38;;;;;;;21.20;9.77;;;3.80;99.90;;;;;;8384632;28;20666;-70
2021/01/10 16:37:40;;;;;;;19.23;9.43;;;3.90;99.90;;;;;;8369889;28;20048;-73
2021/01/10 16:41:47;;;;;;;24.30;12.07;;;4.00;99.90;;;;;;8391252;28;20108;-73
2021/01/10 16:45:49;;;;;;;22.67;11.02;;;3.90;99.90;;;;;;8400329;28;20676;-74
2021/01/10 16:49:51;;;;;;;21.10;12.00;;;4.00;99.90;;;;;;8355180;28;20059;-74
2021/01/10 16:53:55;;;;;;;32.45;11.90;;;4.00;99.90;;;;;;8342275;28;20578;-74
2021/01/10 16:57:56;;;;;;;30.05;11.02;;;4.30;99.90;;;;;;8373040;28;20052;-74
2021/01/10 17:01:58;;;;;;;25.13;11.97;;;4.00;99.90;;;;;;8387502;28;20040;-74
2021/01/10 17:06:00;;;;;;;29.75;11.95;;;4.10;99.90;;;;;;8379017;28;20461;-74
2021/01/10 17:10:01;;;;;;;25.45;12.35;;;4.10;99.90;;;;;;8373502;28;20064;-73
2021/01/10 17:14:03;;;;;;;26.70;12.63;;;4.20;99.90;;;;;;8376652;28;20056;-73
2021/01/10 17:18:05;;;;;;;30.65;12.75;;;4.20;99.90;;;;;;8395894;28;20065;-74
2021/01/10 17:22:08;;;;;;;27.23;12.30;;;4.20;99.90;;;;;;8370779;28;20043;-72
2021/01/10 17:26:10;;;;;;;23.67;11.82;;;4.20;99.90;;;;;;8387096;28;20051;-74
2021/01/10 17:30:12;;;;;;;28.27;11.53;;;4.20;99.90;;;;;;8392766;28;20077;-74
2021/01/10 17:34:16;;;;;;;27.83;12.48;;;4.30;99.90;;;;;;8382215;28;20083;-73
2021/01/10 17:38:17;;;;;;;29.27;12.63;;;4.30;99.90;;;;;;8407986;28;20067;-73
2021/01/10 17:42:18;;;;;;;23.03;11.53;;;4.30;99.90;;;;;;8367672;28;20054;-73
2021/01/10 17:46:21;;;;;;;27.17;11.63;;;4.30;99.90;;;;;;8341683;28;20109;-74
2021/01/10 17:50:23;;;;;;;26.77;12.90;;;4.30;99.90;;;;;;8343109;28;21320;-74
2021/01/10 17:54:24;;;;;;;55.90;26.73;;;4.30;99.90;;;;;;8380169;28;20538;-73
2021/01/10 17:58:26;;;;;;;77.32;30.00;;;4.30;99.90;;;;;;8399087;28;20047;-74
2021/01/10 18:02:28;;;;;;;44.40;16.70;;;4.30;99.90;;;;;;8385338;28;20827;-74
2021/01/10 18:06:33;;;;;;;49.28;19.35;;;4.30;99.90;;;;;;8373718;28;20043;-74
2021/01/10 18:10:35;;;;;;;43.50;14.15;;;4.40;99.90;;;;;;8384520;28;20052;-74
2021/01/10 18:14:37;;;;;;;36.97;14.98;;;4.40;99.90;;;;;;8356868;28;20054;-74
2021/01/10 18:18:38;;;;;;;45.33;17.77;;;4.40;99.90;;;;;;8368561;28;20052;-73
2021/01/10 18:22:40;;;;;;;58.85;16.15;;;4.50;99.90;;;;;;8394833;27;20138;-74
2021/01/10 18:26:41;;;;;;;39.58;12.52;;;4.50;99.90;;;;;;8388400;28;20060;-73
2021/01/10 18:30:46;;;;;;;56.33;12.27;;;4.40;99.90;;;;;;8362892;28;20048;-74
2021/01/10 18:34:48;;;;;;;58.38;10.57;;;4.50;99.90;;;;;;8397990;28;20700;-74
2021/01/10 18:38:49;;;;;;;60.13;11.27;;;4.50;99.90;;;;;;8372971;28;20052;-74
2021/01/10 18:42:51;;;;;;;32.33;10.40;;;4.50;99.90;;;;;;8396004;28;20051;-75
2021/01/10 18:46:53;;;;;;;87.67;13.00;;;4.40;99.90;;;;;;8384880;28;20085;-74
2021/01/10 18:50:54;;;;;;;56.13;18.58;;;4.40;99.90;;;;;;8392517;28;20056;-73
2021/01/10 18:55:01;;;;;;;155.57;17.27;;;4.50;99.90;;;;;;8397714;28;20126;-74
2021/01/10 18:59:02;;;;;;;56.40;24.20;;;4.40;99.90;;;;;;8377885;28;20404;-73
2021/01/10 19:03:04;;;;;;;86.63;12.10;;;4.40;99.90;;;;;;8372397;28;20052;-73
2021/01/10 19:07:05;;;;;;;31.27;16.33;;;4.40;99.90;;;;;;8376063;28;20521;-74
2021/01/10 19:11:09;;;;;;;44.42;13.73;;;4.40;99.90;;;;;;8372938;28;20082;-74
2021/01/10 19:15:11;;;;;;;78.47;15.95;;;4.40;99.90;;;;;;8384487;28;20052;-74
2021/01/10 19:19:14;;;;;;;22.90;12.05;;;4.40;99.90;;;;;;8389339;28;21208;-74
2021/01/10 19:23:15;;;;;;;41.13;17.35;;;5.00;99.90;;;;;;8378554;28;20485;-73
2021/01/10 19:27:17;;;;;;;45.63;18.83;;;4.40;99.90;;;;;;8359322;28;20060;-73
2021/01/10 19:31:28;;;;;;;35.23;15.90;;;4.40;99.90;;;;;;8357060;28;20051;-74
2021/01/10 19:35:30;;;;;;;21.47;10.97;;;4.40;99.90;;;;;;8389389;28;20493;-74
2021/01/10 19:39:31;;;;;;;28.27;15.23;;;4.40;99.90;;;;;;8378589;28;20101;-73
2021/01/10 19:43:32;;;;;;;28.52;10.82;;;4.40;99.90;;;;;;8376124;28;20128;-73
2021/01/10 19:47:34;;;;;;;20.47;8.47;;;4.40;99.90;;;;;;8392496;27;20044;-74
2021/01/10 19:51:37;;;;;;;20.45;11.80;;;4.40;99.90;;;;;;8385274;28;20044;-75
2021/01/10 19:55:40;;;;;;;24.05;11.45;;;4.40;99.90;;;;;;8383944;28;20040;-73
2021/01/10 19:59:44;;;;;;;18.45;9.07;;;4.40;99.90;;;;;;8372887;28;20592;-75
2021/01/10 20:03:46;;;;;;;20.80;10.38;;;4.40;99.90;;;;;;8379381;28;20044;-74
2021/01/10 20:07:47;;;;;;;17.23;8.93;;;4.50;99.90;;;;;;8380490;28;20093;-75
2021/01/10 20:11:49;;;;;;;18.53;9.97;;;4.80;99.90;;;;;;8397816;28;20521;-75
2021/01/10 20:15:53;;;;;;;19.15;7.40;;;4.90;99.90;;;;;;8366454;28;20432;-75
2021/01/10 20:19:55;;;;;;;14.33;6.80;;;4.20;99.90;;;;;;8378206;28;20045;-75
2021/01/10 20:23:56;;;;;;;22.20;7.63;;;4.10;99.90;;;;;;8395174;28;20615;-74
2021/01/10 20:27:57;;;;;;;14.20;6.83;;;4.10;99.90;;;;;;8390659;28;20044;-74
2021/01/10 20:31:59;;;;;;;11.97;5.50;;;4.10;99.90;;;;;;8380239;28;21133;-74
2021/01/10 20:36:03;;;;;;;17.27;7.63;;;4.10;99.90;;;;;;8390942;28;20044;-75
2021/01/10 20:40:07;;;;;;;17.27;6.95;;;4.50;99.90;;;;;;8374570;28;20054;-75
2021/01/10 20:44:09;;;;;;;16.60;6.53;;;4.10;99.90;;;;;;8380227;28;20060;-75
2021/01/10 20:48:10;;;;;;;11.63;5.93;;;4.10;99.90;;;;;;8378006;28;20043;-74
2021/01/10 20:52:12;;;;;;;12.30;6.27;;;4.00;99.90;;;;;;8400172;28;20059;-74
2021/01/10 20:56:13;;;;;;;14.77;7.00;;;4.10;99.90;;;;;;8386344;28;20058;-74
2021/01/10 21:00:15;;;;;;;15.47;5.63;;;4.80;99.90;;;;;;8396437;28;20324;-74
2021/01/10 21:04:16;;;;;;;13.75;5.75;;;4.10;99.90;;;;;;8407659;28;20608;-74
2021/01/10 21:08:18;;;;;;;11.63;4.55;;;4.10;99.90;;;;;;8385394;28;20048;-74
2021/01/10 21:12:20;;;;;;;9.87;4.57;;;4.10;99.90;;;;;;8382135;28;20561;-73
2021/01/10 21:16:25;;;;;;;12.93;4.20;;;4.10;99.90;;;;;;8383100;28;20534;-74
2021/01/10 21:20:26;;;;;;;10.57;3.67;;;4.10;99.90;;;;;;8407004;27;20050;-74
2021/01/10 21:24:28;;;;;;;9.57;4.00;;;4.20;99.90;;;;;;8393830;28;20106;-74
2021/01/10 21:28:29;;;;;;;11.82;4.35;;;4.00;99.90;;;;;;8370076;28;20741;-73